createdAt,value
2022-09-28T00:02:35.670Z,13.57
2022-09-28T00:05:21.566Z,13.57
2022-09-28T00:08:07.378Z,13.54
2022-09-28T00:10:57.038Z,13.57
2022-09-28T00:13:44.060Z,13.56
2022-09-28T00:16:36.078Z,13.53
2022-09-28T00:19:21.849Z,13.54
2022-09-28T00:22:07.605Z,13.54
2022-09-28T00:24:53.655Z,13.53
2022-09-28T00:27:40.282Z,13.55
2022-09-28T00:30:26.394Z,13.56
2022-09-28T00:33:12.045Z,13.54
2022-09-28T00:35:58.652Z,13.58
2022-09-28T00:38:44.457Z,13.58
2022-09-28T00:41:30.334Z,13.56
2022-09-28T00:44:22.520Z,13.59
2022-09-28T00:47:13.994Z,13.58
2022-09-28T00:50:06.037Z,13.56
2022-09-28T00:52:57.219Z,13.53
2022-09-28T00:55:51.269Z,13.52
2022-09-28T00:58:38.575Z,13.45
2022-09-28T01:01:24.442Z,13.44
2022-09-28T01:04:10.929Z,13.41
2022-09-28T01:06:58.242Z,13.38
2022-09-28T01:09:46.144Z,13.36
2022-09-28T01:12:33.915Z,13.32
2022-09-28T01:15:21.914Z,13.30
2022-09-28T01:18:22.730Z,13.22
2022-09-28T01:21:53.393Z,13.16
2022-09-28T01:24:42.757Z,13.12
2022-09-28T01:27:29.993Z,13.09
2022-09-28T01:30:18.153Z,13.05
2022-09-28T01:33:07.615Z,13.06
2022-09-28T01:36:15.801Z,13.07
2022-09-28T01:39:08.317Z,13.08
2022-09-28T01:42:06.287Z,13.10
2022-09-28T01:44:57.236Z,13.11
2022-09-28T01:47:43.723Z,13.12
2022-09-28T01:50:35.636Z,13.16
2022-09-28T01:53:49.067Z,13.16
2022-09-28T01:56:52.372Z,13.21
2022-09-28T01:59:42.254Z,13.23
2022-09-28T02:02:33.245Z,13.24
2022-09-28T02:05:24.195Z,13.22
2022-09-28T02:08:10.474Z,13.25
2022-09-28T02:11:14.241Z,13.25
2022-09-28T02:14:09.292Z,13.28
2022-09-28T02:16:56.369Z,13.28
2022-09-28T02:19:49.081Z,13.32
2022-09-28T02:22:46.133Z,13.34
2022-09-28T02:25:45.926Z,13.36
2022-09-28T02:28:32.101Z,13.42
2022-09-28T02:31:19.613Z,13.44
2022-09-28T02:34:10.158Z,13.45
2022-09-28T02:36:57.078Z,13.47
2022-09-28T02:39:43.152Z,13.50
2022-09-28T02:42:47.550Z,13.52
2022-09-28T02:45:48.901Z,13.53
2022-09-28T02:48:44.052Z,13.56
2022-09-28T02:51:49.466Z,13.57
2022-09-28T02:55:14.180Z,13.57
2022-09-28T02:58:22.236Z,13.58
2022-09-28T03:01:34.884Z,13.41
2022-09-28T03:04:49.685Z,13.56
2022-09-28T03:08:00.224Z,13.45
2022-09-28T03:10:57.298Z,13.50
2022-09-28T03:13:46.407Z,13.52
2022-09-28T03:16:33.036Z,13.53
2022-09-28T03:19:26.075Z,13.53
2022-09-28T03:22:14.160Z,13.42
2022-09-28T03:24:59.833Z,13.54
2022-09-28T03:27:46.016Z,13.56
2022-09-28T03:30:33.665Z,13.55
2022-09-28T03:33:20.183Z,13.52
2022-09-28T03:36:06.205Z,13.50
2022-09-28T03:38:55.159Z,13.53
2022-09-28T03:41:42.017Z,13.52
2022-09-28T03:44:28.062Z,13.58
2022-09-28T03:47:16.010Z,13.59
2022-09-28T03:50:02.458Z,13.61
2022-09-28T03:52:48.802Z,13.63
2022-09-28T03:55:35.135Z,13.62
2022-09-28T03:58:22.719Z,13.64
2022-09-28T04:01:16.568Z,13.65
2022-09-28T04:04:04.597Z,13.66
2022-09-28T04:06:50.930Z,13.67
2022-09-28T04:09:36.855Z,13.68
2022-09-28T04:12:22.751Z,13.70
2022-09-28T04:15:09.759Z,13.71
2022-09-28T04:17:56.000Z,13.70
2022-09-28T04:21:06.850Z,13.75
2022-09-28T04:23:59.505Z,13.73
2022-09-28T04:26:45.532Z,13.78
2022-09-28T04:29:32.440Z,13.76
2022-09-28T04:32:19.251Z,13.79
2022-09-28T04:35:05.712Z,13.77
2022-09-28T04:37:52.080Z,13.83
2022-09-28T04:40:38.651Z,13.85
2022-09-28T04:43:24.509Z,13.81
2022-09-28T04:46:10.960Z,13.80
2022-09-28T04:49:03.668Z,13.82
2022-09-28T04:52:17.195Z,13.84
2022-09-28T04:55:06.842Z,13.87
2022-09-28T04:57:53.373Z,13.90
2022-09-28T05:00:40.466Z,13.89
2022-09-28T05:03:36.865Z,13.93
2022-09-28T05:06:50.794Z,13.92
2022-09-28T05:09:38.542Z,13.96
2022-09-28T05:12:25.269Z,13.96
2022-09-28T05:15:12.113Z,13.99
2022-09-28T05:17:58.088Z,14.01
2022-09-28T05:20:49.255Z,14.00
2022-09-28T05:23:35.320Z,14.05
2022-09-28T05:26:21.982Z,14.06
2022-09-28T05:29:08.329Z,14.09
2022-09-28T05:32:03.082Z,14.12
2022-09-28T05:35:06.362Z,14.17
2022-09-28T05:38:05.574Z,14.20
2022-09-28T05:40:53.219Z,14.23
2022-09-28T05:43:40.511Z,14.30
2022-09-28T05:46:26.342Z,14.32
2022-09-28T05:49:13.045Z,14.34
2022-09-28T05:52:00.118Z,14.37
2022-09-28T05:54:46.582Z,14.44
2022-09-28T05:57:32.769Z,14.45
2022-09-28T06:00:19.639Z,14.46
2022-09-28T06:03:14.194Z,14.48
2022-09-28T06:06:03.144Z,14.48
2022-09-28T06:08:50.874Z,14.51
2022-09-28T06:12:02.886Z,14.56
2022-09-28T06:14:59.375Z,14.58
2022-09-28T06:17:45.568Z,14.62
2022-09-28T06:20:49.971Z,14.68
2022-09-28T06:23:39.969Z,14.72
2022-09-28T06:26:27.126Z,14.80
2022-09-28T06:29:19.742Z,14.83
2022-09-28T06:32:07.944Z,14.89
2022-09-28T06:34:56.668Z,14.93
2022-09-28T06:37:45.416Z,14.95
2022-09-28T06:40:32.079Z,14.99
2022-09-28T06:43:17.926Z,15.01
2022-09-28T06:46:21.901Z,14.99
2022-09-28T06:49:27.828Z,15.02
2022-09-28T06:52:36.732Z,15.00
2022-09-28T06:55:28.436Z,15.05
2022-09-28T06:58:19.574Z,15.09
2022-09-28T07:01:06.223Z,15.14
2022-09-28T07:04:04.907Z,15.26
2022-09-28T07:07:10.655Z,15.37
2022-09-28T07:10:15.456Z,15.47
2022-09-28T07:13:47.178Z,15.55
2022-09-28T07:16:39.229Z,15.64
2022-09-28T07:19:33.869Z,15.73
2022-09-28T07:22:24.160Z,15.81
2022-09-28T07:25:16.943Z,15.89
2022-09-28T07:28:07.094Z,15.96
2022-09-28T07:31:25.277Z,16.03
2022-09-28T07:34:31.363Z,16.20
2022-09-28T07:37:28.065Z,16.30
2022-09-28T07:40:32.880Z,16.45
2022-09-28T07:43:22.931Z,16.57
2022-09-28T07:46:13.873Z,16.67
2022-09-28T07:49:10.004Z,16.75
2022-09-28T07:52:28.920Z,16.89
2022-09-28T07:55:34.499Z,17.03
2022-09-28T07:58:30.778Z,17.15
2022-09-28T08:01:36.747Z,17.29
2022-09-28T08:04:23.946Z,17.42
2022-09-28T08:07:11.783Z,17.55
2022-09-28T08:09:59.036Z,17.66
2022-09-28T08:12:47.789Z,17.78
2022-09-28T08:16:01.022Z,17.90
2022-09-28T08:19:07.984Z,18.05
2022-09-28T08:21:54.135Z,18.18
2022-09-28T08:24:39.912Z,18.34
2022-09-28T08:27:25.605Z,18.48
2022-09-28T08:30:12.141Z,18.62
2022-09-28T08:33:28.748Z,18.76
2022-09-28T08:36:35.163Z,18.86
2022-09-28T08:39:20.862Z,18.92
2022-09-28T08:42:36.036Z,19.00
2022-09-28T08:45:38.357Z,19.04
2022-09-28T08:49:25.086Z,19.06
2022-09-28T08:52:29.844Z,19.13
2022-09-28T08:55:37.370Z,19.15
2022-09-28T08:58:28.430Z,19.17
2022-09-28T09:01:16.743Z,19.22
2022-09-28T09:04:04.727Z,19.22
2022-09-28T09:07:59.774Z,19.26
2022-09-28T09:10:57.892Z,19.31
2022-09-28T09:14:21.586Z,19.35
2022-09-28T09:17:20.043Z,19.41
2022-09-28T09:20:59.078Z,19.42
2022-09-28T09:24:15.629Z,19.47
2022-09-28T09:27:04.878Z,19.48
2022-09-28T09:29:53.824Z,19.50
2022-09-28T09:32:50.808Z,19.52
2022-09-28T09:35:45.946Z,19.54
2022-09-28T09:38:58.989Z,19.55
2022-09-28T09:42:09.970Z,19.57
2022-09-28T09:45:21.338Z,19.59
2022-09-28T09:48:30.166Z,19.62
2022-09-28T09:51:47.233Z,19.62
2022-09-28T09:54:54.472Z,19.59
2022-09-28T09:58:11.027Z,19.67
2022-09-28T10:01:17.416Z,19.70
2022-09-28T10:04:31.368Z,19.73
2022-09-28T10:07:30.013Z,19.72
2022-09-28T10:10:32.419Z,19.72
2022-09-28T10:13:29.317Z,19.67
2022-09-28T10:16:18.902Z,19.69
2022-09-28T10:19:14.150Z,19.62
2022-09-28T10:22:35.836Z,19.59
2022-09-28T10:25:30.549Z,19.54
2022-09-28T10:28:20.595Z,19.44
2022-09-28T10:31:45.333Z,19.37
2022-09-28T10:34:52.027Z,19.24
2022-09-28T10:38:03.317Z,19.19
2022-09-28T10:41:11.189Z,19.16
2022-09-28T10:44:17.612Z,19.12
2022-09-28T10:47:23.145Z,19.13
2022-09-28T10:50:34.506Z,19.23
2022-09-28T10:53:37.662Z,19.45
2022-09-28T10:56:46.691Z,19.67
2022-09-28T10:59:41.084Z,19.81
2022-09-28T11:02:49.409Z,19.98
2022-09-28T11:05:40.131Z,20.10
2022-09-28T11:08:40.668Z,20.20
2022-09-28T11:11:29.656Z,20.27
2022-09-28T11:14:39.774Z,20.37
2022-09-28T11:17:34.262Z,20.51
2022-09-28T11:20:28.306Z,20.65
2022-09-28T11:23:20.564Z,20.73
2022-09-28T11:26:09.637Z,20.76
2022-09-28T11:28:55.746Z,20.78
2022-09-28T11:31:53.966Z,20.84
2022-09-28T11:34:58.682Z,20.84
2022-09-28T11:38:06.199Z,20.82
2022-09-28T11:41:41.043Z,20.84
2022-09-28T11:44:44.831Z,20.85
2022-09-28T11:47:47.662Z,20.93
2022-09-28T11:50:59.141Z,20.99
2022-09-28T11:53:54.981Z,21.05
2022-09-28T11:56:48.830Z,21.17
2022-09-28T11:59:36.900Z,21.18
2022-09-28T12:02:36.809Z,21.39
2022-09-28T12:05:32.279Z,21.65
2022-09-28T12:08:28.737Z,21.94
2022-09-28T12:11:43.985Z,22.29
2022-09-28T12:14:41.511Z,22.82
2022-09-28T12:17:40.488Z,23.47
2022-09-28T12:20:34.276Z,24.13
2022-09-28T12:23:31.451Z,24.73
2022-09-28T12:26:38.053Z,25.22
2022-09-28T12:29:33.986Z,25.54
2022-09-28T12:32:36.103Z,25.81
2022-09-28T12:35:32.996Z,26.03
2022-09-28T12:39:17.720Z,26.16
2022-09-28T12:42:28.781Z,26.25
2022-09-28T12:45:53.181Z,26.24
2022-09-28T12:48:57.241Z,26.28
2022-09-28T12:51:54.960Z,26.60
2022-09-28T12:55:00.431Z,26.90
2022-09-28T12:58:22.873Z,27.46
2022-09-28T13:01:29.116Z,28.24
2022-09-28T13:04:36.980Z,28.95
2022-09-28T13:07:31.611Z,29.56
2022-09-28T13:10:32.718Z,30.15
2022-09-28T13:14:01.954Z,30.82
2022-09-28T13:17:30.427Z,31.57
2022-09-28T13:20:32.310Z,32.40
2022-09-28T13:23:35.968Z,33.12
2022-09-28T13:26:28.900Z,33.80
2022-09-28T13:29:17.572Z,34.34
2022-09-28T13:32:03.935Z,34.79
2022-09-28T13:34:50.694Z,35.23
2022-09-28T13:37:36.889Z,35.69
2022-09-28T13:41:00.793Z,36.13
2022-09-28T13:44:07.981Z,36.61
2022-09-28T13:47:10.326Z,36.94
2022-09-28T13:50:24.766Z,37.19
2022-09-28T13:53:53.359Z,37.25
2022-09-28T13:56:50.867Z,37.14
2022-09-28T14:00:08.657Z,37.06
2022-09-28T14:03:25.688Z,36.87
2022-09-28T14:06:49.514Z,36.68
2022-09-28T14:10:06.297Z,36.33
2022-09-28T14:12:53.366Z,35.74
2022-09-28T14:15:45.024Z,35.20
2022-09-28T14:18:34.412Z,34.55
2022-09-28T14:21:58.338Z,33.88
2022-09-28T14:25:08.784Z,33.06
2022-09-28T14:28:29.461Z,32.27
2022-09-28T14:31:30.579Z,31.45
2022-09-28T14:34:43.338Z,30.76
2022-09-28T14:37:53.382Z,30.06
2022-09-28T14:41:19.720Z,29.43
2022-09-28T14:44:13.588Z,28.79
2022-09-28T14:47:26.354Z,28.24
2022-09-28T14:50:22.386Z,27.72
2022-09-28T14:53:13.622Z,27.23
2022-09-28T14:56:00.315Z,26.86
2022-09-28T14:58:46.690Z,26.50
2022-09-28T15:01:34.335Z,26.14
2022-09-28T15:04:21.501Z,25.79
2022-09-28T15:07:23.540Z,25.45
2022-09-28T15:10:27.759Z,25.09
2022-09-28T15:13:26.894Z,24.77
2022-09-28T15:16:14.789Z,24.45
2022-09-28T15:19:24.415Z,24.19
2022-09-28T15:22:17.975Z,23.88
2022-09-28T15:25:05.808Z,23.61
2022-09-28T15:27:57.163Z,23.37
2022-09-28T15:30:43.920Z,23.12
2022-09-28T15:33:53.210Z,22.91
2022-09-28T15:36:44.234Z,22.66
2022-09-28T15:39:31.087Z,22.48
2022-09-28T15:42:17.682Z,22.30
2022-09-28T15:45:25.495Z,22.13
2022-09-28T15:48:20.747Z,21.97
2022-09-28T15:51:12.995Z,21.84
2022-09-28T15:54:25.490Z,21.71
2022-09-28T15:57:35.502Z,21.57
2022-09-28T16:00:21.614Z,21.45
2022-09-28T16:03:07.697Z,21.35
2022-09-28T16:05:59.445Z,21.24
2022-09-28T16:08:46.286Z,21.13
2022-09-28T16:11:38.481Z,21.04
2022-09-28T16:14:26.433Z,20.95
2022-09-28T16:17:23.261Z,20.86
2022-09-28T16:20:29.524Z,20.78
2022-09-28T16:23:28.738Z,20.68
2022-09-28T16:26:31.222Z,20.58
2022-09-28T16:29:42.038Z,20.53
2022-09-28T16:32:33.448Z,20.45
2022-09-28T16:35:23.052Z,20.38
2022-09-28T16:38:14.558Z,20.31
2022-09-28T16:41:02.039Z,20.23
2022-09-28T16:43:48.248Z,20.21
2022-09-28T16:46:39.395Z,20.15
2022-09-28T16:49:26.898Z,20.12
2022-09-28T16:52:13.768Z,20.07
2022-09-28T16:58:25.215Z,19.97
2022-09-28T17:01:12.027Z,19.92
2022-09-28T17:03:57.945Z,19.84
2022-09-28T17:06:43.852Z,19.79
2022-09-28T17:09:29.797Z,19.78
2022-09-28T17:12:20.339Z,19.71
2022-09-28T17:15:06.861Z,19.69
2022-09-28T17:17:52.833Z,19.65
2022-09-28T17:20:40.174Z,19.59
2022-09-28T17:23:27.017Z,19.52
2022-09-28T17:26:22.083Z,19.51
2022-09-28T17:29:12.425Z,19.46
2022-09-28T17:31:58.598Z,19.45
2022-09-28T17:34:51.601Z,19.40
2022-09-28T17:37:42.442Z,19.38
2022-09-28T17:40:29.777Z,19.35
2022-09-28T17:43:15.974Z,19.32
2022-09-28T17:46:02.376Z,19.30
2022-09-28T17:48:49.201Z,19.22
2022-09-28T17:51:37.729Z,19.24
2022-09-28T17:54:25.953Z,19.20
2022-09-28T17:57:13.277Z,19.16
2022-09-28T17:59:59.662Z,19.12
2022-09-28T18:02:46.054Z,19.14
2022-09-28T18:05:32.350Z,19.10
2022-09-28T18:08:20.345Z,19.07
2022-09-28T18:11:06.265Z,19.03
2022-09-28T18:13:52.447Z,18.98
2022-09-28T18:16:38.358Z,18.98
2022-09-28T18:19:31.679Z,18.92
2022-09-28T18:22:18.574Z,18.94
2022-09-28T18:25:05.574Z,18.91
2022-09-28T18:27:54.551Z,18.86
2022-09-28T18:30:42.606Z,18.85
2022-09-28T18:33:28.622Z,18.80
2022-09-28T18:36:14.893Z,18.78
2022-09-28T18:39:01.616Z,18.72
2022-09-28T18:41:47.560Z,18.70
2022-09-28T18:44:34.163Z,18.63
2022-09-28T18:47:20.919Z,18.64
2022-09-28T18:50:08.022Z,18.59
2022-09-28T18:52:54.048Z,18.54
2022-09-28T18:55:41.914Z,18.51
2022-09-28T18:58:28.504Z,18.52
2022-09-28T19:01:32.654Z,18.50
2022-09-28T19:04:20.519Z,18.47
2022-09-28T19:07:07.966Z,18.44
2022-09-28T19:09:53.933Z,18.41
2022-09-28T19:12:40.123Z,18.39
2022-09-28T19:15:26.211Z,18.39
2022-09-28T19:18:12.008Z,18.34
2022-09-28T19:21:02.589Z,18.32
2022-09-28T19:23:49.674Z,18.33
2022-09-28T19:26:36.006Z,18.29
2022-09-28T19:29:22.741Z,18.28
2022-09-28T19:32:08.807Z,18.22
2022-09-28T19:34:55.315Z,18.21
2022-09-28T19:37:41.152Z,18.18
2022-09-28T19:40:27.240Z,18.14
2022-09-28T19:43:13.745Z,18.08
2022-09-28T19:46:04.466Z,18.10
2022-09-28T19:48:50.404Z,18.08
2022-09-28T19:51:38.794Z,18.06
2022-09-28T19:54:35.693Z,18.01
2022-09-28T19:57:27.952Z,18.02
2022-09-28T20:00:14.133Z,18.01
2022-09-28T20:03:00.317Z,18.00
2022-09-28T20:05:49.315Z,17.99
2022-09-28T20:08:35.662Z,17.98
2022-09-28T20:11:21.987Z,17.96
2022-09-28T20:14:09.803Z,17.95
2022-09-28T20:16:56.116Z,17.93
2022-09-28T20:19:42.325Z,17.94
2022-09-28T20:22:29.391Z,17.89
2022-09-28T20:25:15.515Z,17.91
2022-09-28T20:28:01.617Z,17.90
2022-09-28T20:30:47.430Z,17.87
2022-09-28T20:33:34.839Z,17.82
2022-09-28T20:36:23.484Z,17.84
2022-09-28T20:39:10.514Z,17.81
2022-09-28T20:41:57.706Z,17.77
2022-09-28T20:44:46.554Z,17.74
2022-09-28T20:47:32.676Z,17.71
2022-09-28T20:50:19.915Z,17.71
2022-09-28T20:53:05.874Z,17.71
2022-09-28T20:55:59.698Z,17.69
2022-09-28T20:58:46.208Z,17.66
2022-09-28T21:01:32.487Z,17.63
2022-09-28T21:04:18.677Z,17.64
2022-09-28T21:07:04.717Z,17.63
2022-09-28T21:09:50.643Z,17.59
2022-09-28T21:12:37.037Z,17.59
2022-09-28T21:15:23.403Z,17.57
2022-09-28T21:18:09.421Z,17.56
2022-09-28T21:20:55.457Z,17.60
2022-09-28T21:23:46.414Z,17.58
2022-09-28T21:26:32.948Z,17.57
2022-09-28T21:29:19.039Z,17.58
2022-09-28T21:32:06.054Z,17.54
2022-09-28T21:34:52.046Z,17.51
2022-09-28T21:37:38.101Z,17.51
2022-09-28T21:40:24.193Z,17.44
2022-09-28T21:43:09.973Z,17.48
2022-09-28T21:45:56.571Z,17.44
2022-09-28T21:48:42.902Z,17.39
2022-09-28T21:51:30.149Z,17.38
2022-09-28T21:54:16.202Z,17.37
2022-09-28T21:57:02.122Z,17.33
2022-09-28T21:59:48.220Z,17.34
2022-09-28T22:02:34.046Z,17.31
2022-09-28T22:05:20.297Z,17.28
2022-09-28T22:08:06.399Z,17.23
2022-09-28T22:11:10.755Z,17.24
2022-09-28T22:13:57.470Z,17.21
2022-09-28T22:16:43.434Z,17.21
2022-09-28T22:19:29.354Z,17.20
2022-09-28T22:22:15.047Z,17.15
2022-09-28T22:25:01.125Z,17.15
2022-09-28T22:27:46.899Z,17.06
2022-09-28T22:30:34.811Z,17.07
2022-09-28T22:33:20.724Z,17.09
2022-09-28T22:36:07.958Z,17.06
2022-09-28T22:38:57.889Z,17.04
2022-09-28T22:41:44.133Z,17.03
2022-09-28T22:44:29.869Z,17.01
2022-09-28T22:47:15.560Z,16.97
2022-09-28T22:50:01.247Z,16.95
2022-09-28T22:52:48.532Z,16.97
2022-09-28T22:55:34.493Z,16.95
2022-09-28T22:58:20.642Z,16.91
2022-09-28T23:01:11.632Z,16.93
2022-09-28T23:03:58.277Z,16.92
2022-09-28T23:06:44.270Z,16.91
2022-09-28T23:09:30.075Z,16.91
2022-09-28T23:12:15.742Z,16.88
2022-09-28T23:15:01.775Z,16.89
2022-09-28T23:17:53.847Z,16.84
2022-09-28T23:20:39.813Z,16.88
2022-09-28T23:23:26.256Z,16.85
2022-09-28T23:26:12.180Z,16.87
2022-09-28T23:28:58.954Z,16.86
2022-09-28T23:31:45.506Z,16.86
2022-09-28T23:34:31.955Z,16.83
2022-09-28T23:37:17.713Z,16.84
2022-09-28T23:40:06.938Z,16.85
2022-09-28T23:42:52.614Z,16.84
2022-09-28T23:45:38.449Z,16.83
2022-09-28T23:48:24.121Z,16.83
2022-09-28T23:51:10.165Z,16.78
2022-09-28T23:53:56.287Z,16.77
2022-09-28T23:56:42.301Z,16.82
2022-09-28T23:59:28.053Z,16.79
